sensor_id;sensor_type;location;lat;lon;timestamp;temperature;humidity
18541;DHT22;9400;50.924;5.328;2022-08-02T00:00:31;20.50;99.90
18541;DHT22;9400;50.924;5.328;2022-08-02T00:02:59;20.50;99.90
18541;DHT22;9400;50.924;5.328;2022-08-02T00:05:28;20.40;99.90
18541;DHT22;9400;50.924;5.328;2022-08-02T00:07:56;20.40;99.90
18541;DHT22;9400;50.924;5.328;2022-08-02T00:10:25;20.40;99.90
18541;DHT22;9400;50.924;5.328;2022-08-02T00:12:52;20.20;99.90
18541;DHT22;9400;50.924;5.328;2022-08-02T00:15:20;20.10;99.90
18541;DHT22;9400;50.924;5.328;2022-08-02T00:17:48;20.10;99.90
18541;DHT22;9400;50.924;5.328;2022-08-02T00:20:16;20.00;99.90
18541;DHT22;9400;50.924;5.328;2022-08-02T00:22:45;20.00;99.90
18541;DHT22;9400;50.924;5.328;2022-08-02T00:25:12;20.10;99.90
18541;DHT22;9400;50.924;5.328;2022-08-02T00:27:40;20.00;99.90
18541;DHT22;9400;50.924;5.328;2022-08-02T00:30:09;20.00;99.90
18541;DHT22;9400;50.924;5.328;2022-08-02T00:32:37;19.90;99.90
18541;DHT22;9400;50.924;5.328;2022-08-02T00:35:06;20.00;99.90
18541;DHT22;9400;50.924;5.328;2022-08-02T00:37:38;20.00;99.90
18541;DHT22;9400;50.924;5.328;2022-08-02T00:40:11;20.00;99.90
18541;DHT22;9400;50.924;5.328;2022-08-02T00:42:39;19.90;99.90
18541;DHT22;9400;50.924;5.328;2022-08-02T00:45:07;19.90;99.90
18541;DHT22;9400;50.924;5.328;2022-08-02T00:47:35;19.80;99.90
18541;DHT22;9400;50.924;5.328;2022-08-02T00:50:03;19.80;99.90
18541;DHT22;9400;50.924;5.328;2022-08-02T00:52:31;19.90;99.90
18541;DHT22;9400;50.924;5.328;2022-08-02T00:54:59;19.90;99.90
18541;DHT22;9400;50.924;5.328;2022-08-02T00:57:28;19.80;99.90
18541;DHT22;9400;50.924;5.328;2022-08-02T00:59:56;19.80;99.90
18541;DHT22;9400;50.924;5.328;2022-08-02T01:02:23;19.80;99.90
18541;DHT22;9400;50.924;5.328;2022-08-02T01:04:51;19.80;99.90
18541;DHT22;9400;50.924;5.328;2022-08-02T01:07:18;19.90;99.90
18541;DHT22;9400;50.924;5.328;2022-08-02T01:09:46;19.80;99.90
18541;DHT22;9400;50.924;5.328;2022-08-02T01:12:14;19.90;99.90
18541;DHT22;9400;50.924;5.328;2022-08-02T01:14:45;19.90;99.90
18541;DHT22;9400;50.924;5.328;2022-08-02T01:17:17;19.90;99.90
18541;DHT22;9400;50.924;5.328;2022-08-02T01:19:53;19.80;99.90
18541;DHT22;9400;50.924;5.328;2022-08-02T01:22:50;19.90;99.90
18541;DHT22;9400;50.924;5.328;2022-08-02T01:25:43;19.80;99.90
18541;DHT22;9400;50.924;5.328;2022-08-02T01:28:34;19.70;99.90
18541;DHT22;9400;50.924;5.328;2022-08-02T01:31:11;19.50;99.90
18541;DHT22;9400;50.924;5.328;2022-08-02T01:33:44;19.60;99.90
18541;DHT22;9400;50.924;5.328;2022-08-02T01:36:16;19.60;99.90
18541;DHT22;9400;50.924;5.328;2022-08-02T01:38:47;19.50;99.90
18541;DHT22;9400;50.924;5.328;2022-08-02T01:41:18;19.40;99.90
18541;DHT22;9400;50.924;5.328;2022-08-02T01:43:51;19.40;99.90
18541;DHT22;9400;50.924;5.328;2022-08-02T01:46:20;19.40;99.90
18541;DHT22;9400;50.924;5.328;2022-08-02T01:48:49;19.30;99.90
18541;DHT22;9400;50.924;5.328;2022-08-02T01:51:21;19.20;99.90
18541;DHT22;9400;50.924;5.328;2022-08-02T01:54:12;19.20;99.90
18541;DHT22;9400;50.924;5.328;2022-08-02T01:56:41;19.10;99.90
18541;DHT22;9400;50.924;5.328;2022-08-02T01:59:14;19.10;99.90
18541;DHT22;9400;50.924;5.328;2022-08-02T02:01:43;19.10;99.90
18541;DHT22;9400;50.924;5.328;2022-08-02T02:04:15;19.10;99.90
18541;DHT22;9400;50.924;5.328;2022-08-02T02:06:44;19.00;99.90
18541;DHT22;9400;50.924;5.328;2022-08-02T02:09:13;19.00;99.90
18541;DHT22;9400;50.924;5.328;2022-08-02T02:11:42;18.90;99.90
18541;DHT22;9400;50.924;5.328;2022-08-02T02:14:14;18.90;99.90
18541;DHT22;9400;50.924;5.328;2022-08-02T02:16:45;19.00;99.90
18541;DHT22;9400;50.924;5.328;2022-08-02T02:19:15;19.10;99.90
18541;DHT22;9400;50.924;5.328;2022-08-02T02:21:45;19.20;99.90
18541;DHT22;9400;50.924;5.328;2022-08-02T02:24:13;19.00;99.90
18541;DHT22;9400;50.924;5.328;2022-08-02T02:26:42;19.00;99.90
18541;DHT22;9400;50.924;5.328;2022-08-02T02:29:10;18.90;99.90
18541;DHT22;9400;50.924;5.328;2022-08-02T02:31:43;19.00;99.90
18541;DHT22;9400;50.924;5.328;2022-08-02T02:34:15;18.90;99.90
18541;DHT22;9400;50.924;5.328;2022-08-02T02:36:47;18.90;99.90
18541;DHT22;9400;50.924;5.328;2022-08-02T02:39:19;18.90;99.90
18541;DHT22;9400;50.924;5.328;2022-08-02T02:41:48;18.90;99.90
18541;DHT22;9400;50.924;5.328;2022-08-02T02:44:19;19.00;99.90
18541;DHT22;9400;50.924;5.328;2022-08-02T02:46:50;19.00;99.90
18541;DHT22;9400;50.924;5.328;2022-08-02T02:49:20;19.10;99.90
18541;DHT22;9400;50.924;5.328;2022-08-02T02:51:50;18.90;99.90
18541;DHT22;9400;50.924;5.328;2022-08-02T02:54:19;18.70;99.90
18541;DHT22;9400;50.924;5.328;2022-08-02T02:56:48;18.50;99.90
18541;DHT22;9400;50.924;5.328;2022-08-02T02:59:16;18.50;99.90
18541;DHT22;9400;50.924;5.328;2022-08-02T03:01:44;18.60;99.90
18541;DHT22;9400;50.924;5.328;2022-08-02T03:04:14;18.60;99.90
18541;DHT22;9400;50.924;5.328;2022-08-02T03:06:43;18.50;99.90
18541;DHT22;9400;50.924;5.328;2022-08-02T03:09:11;18.50;99.90
18541;DHT22;9400;50.924;5.328;2022-08-02T03:11:40;18.50;99.90
18541;DHT22;9400;50.924;5.328;2022-08-02T03:14:09;18.40;99.90
18541;DHT22;9400;50.924;5.328;2022-08-02T03:16:42;18.40;99.90
18541;DHT22;9400;50.924;5.328;2022-08-02T03:19:12;18.40;99.90
18541;DHT22;9400;50.924;5.328;2022-08-02T03:21:41;18.30;99.90
18541;DHT22;9400;50.924;5.328;2022-08-02T03:24:09;18.30;99.90
18541;DHT22;9400;50.924;5.328;2022-08-02T03:26:37;18.40;99.90
18541;DHT22;9400;50.924;5.328;2022-08-02T03:29:05;18.40;99.90
18541;DHT22;9400;50.924;5.328;2022-08-02T03:31:34;18.50;99.90
18541;DHT22;9400;50.924;5.328;2022-08-02T03:34:03;18.50;99.90
18541;DHT22;9400;50.924;5.328;2022-08-02T03:36:32;18.60;99.90
18541;DHT22;9400;50.924;5.328;2022-08-02T03:39:02;18.50;99.90
18541;DHT22;9400;50.924;5.328;2022-08-02T03:41:30;18.50;99.90
18541;DHT22;9400;50.924;5.328;2022-08-02T03:43:59;18.50;99.90
18541;DHT22;9400;50.924;5.328;2022-08-02T03:46:28;18.50;99.90
18541;DHT22;9400;50.924;5.328;2022-08-02T03:48:56;18.50;99.90
18541;DHT22;9400;50.924;5.328;2022-08-02T03:51:24;18.60;99.90
18541;DHT22;9400;50.924;5.328;2022-08-02T03:53:54;18.40;99.90
18541;DHT22;9400;50.924;5.328;2022-08-02T03:56:22;18.50;99.90
18541;DHT22;9400;50.924;5.328;2022-08-02T03:59:04;18.60;99.90
18541;DHT22;9400;50.924;5.328;2022-08-02T04:01:32;18.60;99.90
18541;DHT22;9400;50.924;5.328;2022-08-02T04:04:00;18.50;99.90
18541;DHT22;9400;50.924;5.328;2022-08-02T04:06:28;18.50;99.90
18541;DHT22;9400;50.924;5.328;2022-08-02T04:08:59;18.40;99.90
18541;DHT22;9400;50.924;5.328;2022-08-02T04:11:27;18.50;99.90
18541;DHT22;9400;50.924;5.328;2022-08-02T04:13:58;18.50;99.90
18541;DHT22;9400;50.924;5.328;2022-08-02T04:16:33;18.50;99.90
18541;DHT22;9400;50.924;5.328;2022-08-02T04:19:04;18.50;99.90
18541;DHT22;9400;50.924;5.328;2022-08-02T04:21:39;18.50;99.90
18541;DHT22;9400;50.924;5.328;2022-08-02T04:24:09;18.50;99.90
18541;DHT22;9400;50.924;5.328;2022-08-02T04:26:37;18.60;99.90
18541;DHT22;9400;50.924;5.328;2022-08-02T04:29:08;18.60;99.90
18541;DHT22;9400;50.924;5.328;2022-08-02T04:31:36;18.60;99.90
18541;DHT22;9400;50.924;5.328;2022-08-02T04:34:05;18.60;99.90
18541;DHT22;9400;50.924;5.328;2022-08-02T04:36:34;18.80;99.90
18541;DHT22;9400;50.924;5.328;2022-08-02T04:39:02;18.80;99.90
18541;DHT22;9400;50.924;5.328;2022-08-02T04:41:42;18.70;99.90
18541;DHT22;9400;50.924;5.328;2022-08-02T04:44:10;18.70;99.90
18541;DHT22;9400;50.924;5.328;2022-08-02T04:46:38;18.90;99.90
18541;DHT22;9400;50.924;5.328;2022-08-02T04:49:07;18.90;99.90
18541;DHT22;9400;50.924;5.328;2022-08-02T04:51:34;18.80;99.90
18541;DHT22;9400;50.924;5.328;2022-08-02T04:54:03;18.70;99.90
18541;DHT22;9400;50.924;5.328;2022-08-02T04:56:31;18.70;99.90
18541;DHT22;9400;50.924;5.328;2022-08-02T04:58:59;18.80;99.90
18541;DHT22;9400;50.924;5.328;2022-08-02T05:01:27;18.80;99.90
18541;DHT22;9400;50.924;5.328;2022-08-02T05:03:54;18.80;99.90
18541;DHT22;9400;50.924;5.328;2022-08-02T05:06:22;18.90;99.90
18541;DHT22;9400;50.924;5.328;2022-08-02T05:08:49;18.90;99.90
18541;DHT22;9400;50.924;5.328;2022-08-02T05:11:17;18.90;99.90
18541;DHT22;9400;50.924;5.328;2022-08-02T05:13:44;19.00;99.90
18541;DHT22;9400;50.924;5.328;2022-08-02T05:16:13;19.00;99.90
18541;DHT22;9400;50.924;5.328;2022-08-02T05:18:41;19.20;99.90
18541;DHT22;9400;50.924;5.328;2022-08-02T05:21:08;19.20;99.90
18541;DHT22;9400;50.924;5.328;2022-08-02T05:23:36;19.40;99.90
18541;DHT22;9400;50.924;5.328;2022-08-02T05:26:07;19.40;99.90
18541;DHT22;9400;50.924;5.328;2022-08-02T05:28:35;19.40;99.90
18541;DHT22;9400;50.924;5.328;2022-08-02T05:31:02;19.40;99.90
18541;DHT22;9400;50.924;5.328;2022-08-02T05:33:31;19.50;99.90
18541;DHT22;9400;50.924;5.328;2022-08-02T05:35:59;19.60;99.90
18541;DHT22;9400;50.924;5.328;2022-08-02T05:38:26;19.80;99.90
18541;DHT22;9400;50.924;5.328;2022-08-02T05:40:57;19.90;99.90
18541;DHT22;9400;50.924;5.328;2022-08-02T05:43:24;20.00;99.90
18541;DHT22;9400;50.924;5.328;2022-08-02T05:45:52;20.00;99.90
18541;DHT22;9400;50.924;5.328;2022-08-02T05:48:21;20.10;99.90
18541;DHT22;9400;50.924;5.328;2022-08-02T05:50:59;20.10;99.90
18541;DHT22;9400;50.924;5.328;2022-08-02T05:53:35;20.20;99.90
18541;DHT22;9400;50.924;5.328;2022-08-02T05:56:12;20.10;99.90
18541;DHT22;9400;50.924;5.328;2022-08-02T05:58:49;20.00;99.90
18541;DHT22;9400;50.924;5.328;2022-08-02T06:01:21;20.20;99.90
18541;DHT22;9400;50.924;5.328;2022-08-02T06:03:56;20.20;99.90
18541;DHT22;9400;50.924;5.328;2022-08-02T06:06:28;20.40;99.90
18541;DHT22;9400;50.924;5.328;2022-08-02T06:09:03;20.30;99.90
18541;DHT22;9400;50.924;5.328;2022-08-02T06:11:36;20.40;99.90
18541;DHT22;9400;50.924;5.328;2022-08-02T06:14:05;20.40;99.90
18541;DHT22;9400;50.924;5.328;2022-08-02T06:16:33;20.40;99.90
18541;DHT22;9400;50.924;5.328;2022-08-02T06:19:02;20.60;99.90
18541;DHT22;9400;50.924;5.328;2022-08-02T06:21:32;20.60;99.90
18541;DHT22;9400;50.924;5.328;2022-08-02T06:24:02;20.80;99.90
18541;DHT22;9400;50.924;5.328;2022-08-02T06:26:30;20.80;99.90
18541;DHT22;9400;50.924;5.328;2022-08-02T06:28:58;20.80;99.90
18541;DHT22;9400;50.924;5.328;2022-08-02T06:31:26;20.80;99.90
18541;DHT22;9400;50.924;5.328;2022-08-02T06:33:54;20.80;99.90
18541;DHT22;9400;50.924;5.328;2022-08-02T06:36:28;20.70;99.90
18541;DHT22;9400;50.924;5.328;2022-08-02T06:39:02;20.80;99.90
18541;DHT22;9400;50.924;5.328;2022-08-02T06:41:37;21.00;99.90
18541;DHT22;9400;50.924;5.328;2022-08-02T06:44:05;21.10;99.90
18541;DHT22;9400;50.924;5.328;2022-08-02T06:46:33;21.20;99.90
18541;DHT22;9400;50.924;5.328;2022-08-02T06:49:01;21.30;99.90
18541;DHT22;9400;50.924;5.328;2022-08-02T06:51:29;21.30;99.90
18541;DHT22;9400;50.924;5.328;2022-08-02T06:53:58;21.50;99.90
18541;DHT22;9400;50.924;5.328;2022-08-02T06:56:26;21.40;99.90
18541;DHT22;9400;50.924;5.328;2022-08-02T06:58:53;21.50;99.90
18541;DHT22;9400;50.924;5.328;2022-08-02T07:01:20;21.50;99.90
18541;DHT22;9400;50.924;5.328;2022-08-02T07:03:48;21.60;99.90
18541;DHT22;9400;50.924;5.328;2022-08-02T07:06:16;21.80;99.90
18541;DHT22;9400;50.924;5.328;2022-08-02T07:08:43;21.80;99.90
18541;DHT22;9400;50.924;5.328;2022-08-02T07:11:12;21.90;99.90
18541;DHT22;9400;50.924;5.328;2022-08-02T07:13:39;22.10;99.90
18541;DHT22;9400;50.924;5.328;2022-08-02T07:16:07;22.10;99.90
18541;DHT22;9400;50.924;5.328;2022-08-02T07:18:35;22.20;99.90
18541;DHT22;9400;50.924;5.328;2022-08-02T07:21:02;22.40;99.90
18541;DHT22;9400;50.924;5.328;2022-08-02T07:23:31;22.60;99.90
18541;DHT22;9400;50.924;5.328;2022-08-02T07:25:59;22.60;99.90
18541;DHT22;9400;50.924;5.328;2022-08-02T07:28:28;22.70;99.90
18541;DHT22;9400;50.924;5.328;2022-08-02T07:30:55;22.70;99.90
18541;DHT22;9400;50.924;5.328;2022-08-02T07:33:23;22.50;99.90
18541;DHT22;9400;50.924;5.328;2022-08-02T07:35:52;22.50;99.90
18541;DHT22;9400;50.924;5.328;2022-08-02T07:38:19;22.70;99.90
18541;DHT22;9400;50.924;5.328;2022-08-02T07:40:49;22.70;99.90
18541;DHT22;9400;50.924;5.328;2022-08-02T07:43:16;22.90;99.90
18541;DHT22;9400;50.924;5.328;2022-08-02T07:45:45;22.80;99.90
18541;DHT22;9400;50.924;5.328;2022-08-02T07:48:13;22.90;99.90
18541;DHT22;9400;50.924;5.328;2022-08-02T07:50:40;23.10;99.90
18541;DHT22;9400;50.924;5.328;2022-08-02T07:53:08;23.20;99.90
18541;DHT22;9400;50.924;5.328;2022-08-02T07:55:36;23.40;99.90
18541;DHT22;9400;50.924;5.328;2022-08-02T07:58:03;23.50;99.90
18541;DHT22;9400;50.924;5.328;2022-08-02T08:00:31;23.60;99.90
18541;DHT22;9400;50.924;5.328;2022-08-02T08:03:00;23.50;99.90
18541;DHT22;9400;50.924;5.328;2022-08-02T08:05:28;23.30;99.90
18541;DHT22;9400;50.924;5.328;2022-08-02T08:07:55;23.30;99.90
18541;DHT22;9400;50.924;5.328;2022-08-02T08:10:23;23.30;99.90
18541;DHT22;9400;50.924;5.328;2022-08-02T08:12:50;23.50;99.90
18541;DHT22;9400;50.924;5.328;2022-08-02T08:15:20;23.50;99.90
18541;DHT22;9400;50.924;5.328;2022-08-02T08:17:47;23.50;99.90
18541;DHT22;9400;50.924;5.328;2022-08-02T08:20:17;23.50;99.90
18541;DHT22;9400;50.924;5.328;2022-08-02T08:22:45;23.60;99.90
18541;DHT22;9400;50.924;5.328;2022-08-02T08:25:13;23.70;99.90
18541;DHT22;9400;50.924;5.328;2022-08-02T08:27:47;23.90;99.90
18541;DHT22;9400;50.924;5.328;2022-08-02T08:30:15;24.10;99.90
18541;DHT22;9400;50.924;5.328;2022-08-02T08:32:43;24.00;99.90
18541;DHT22;9400;50.924;5.328;2022-08-02T08:35:10;23.80;99.90
18541;DHT22;9400;50.924;5.328;2022-08-02T08:37:43;23.80;99.90
18541;DHT22;9400;50.924;5.328;2022-08-02T08:40:11;23.90;99.90
18541;DHT22;9400;50.924;5.328;2022-08-02T08:42:39;24.00;99.90
18541;DHT22;9400;50.924;5.328;2022-08-02T08:45:08;24.00;99.90
18541;DHT22;9400;50.924;5.328;2022-08-02T08:47:37;24.10;99.90
18541;DHT22;9400;50.924;5.328;2022-08-02T08:50:06;24.20;99.90
18541;DHT22;9400;50.924;5.328;2022-08-02T08:52:38;24.20;99.90
18541;DHT22;9400;50.924;5.328;2022-08-02T08:55:09;24.30;99.90
18541;DHT22;9400;50.924;5.328;2022-08-02T08:57:41;24.30;99.90
18541;DHT22;9400;50.924;5.328;2022-08-02T09:00:11;24.40;99.90
18541;DHT22;9400;50.924;5.328;2022-08-02T09:02:42;24.50;99.90
18541;DHT22;9400;50.924;5.328;2022-08-02T09:05:10;24.70;99.90
18541;DHT22;9400;50.924;5.328;2022-08-02T09:07:38;25.00;99.90
18541;DHT22;9400;50.924;5.328;2022-08-02T09:10:38;25.10;99.90
18541;DHT22;9400;50.924;5.328;2022-08-02T09:13:12;25.10;99.90
18541;DHT22;9400;50.924;5.328;2022-08-02T09:15:42;25.10;99.90
18541;DHT22;9400;50.924;5.328;2022-08-02T09:18:10;25.20;99.90
18541;DHT22;9400;50.924;5.328;2022-08-02T09:20:52;25.30;99.90
18541;DHT22;9400;50.924;5.328;2022-08-02T09:23:19;25.20;99.90
18541;DHT22;9400;50.924;5.328;2022-08-02T09:26:00;25.20;99.90
18541;DHT22;9400;50.924;5.328;2022-08-02T09:28:29;25.30;99.90
18541;DHT22;9400;50.924;5.328;2022-08-02T09:31:03;25.30;99.90
18541;DHT22;9400;50.924;5.328;2022-08-02T09:33:31;25.50;99.90
18541;DHT22;9400;50.924;5.328;2022-08-02T09:36:01;25.70;99.90
18541;DHT22;9400;50.924;5.328;2022-08-02T09:38:29;25.90;99.90
18541;DHT22;9400;50.924;5.328;2022-08-02T09:40:59;26.10;99.90
18541;DHT22;9400;50.924;5.328;2022-08-02T09:43:38;26.20;99.90
18541;DHT22;9400;50.924;5.328;2022-08-02T09:46:13;26.30;99.90
18541;DHT22;9400;50.924;5.328;2022-08-02T09:48:52;26.40;99.90
18541;DHT22;9400;50.924;5.328;2022-08-02T09:51:22;26.40;99.90
18541;DHT22;9400;50.924;5.328;2022-08-02T09:53:52;26.50;99.90
18541;DHT22;9400;50.924;5.328;2022-08-02T09:56:22;26.50;99.90
18541;DHT22;9400;50.924;5.328;2022-08-02T09:58:51;26.20;99.90
18541;DHT22;9400;50.924;5.328;2022-08-02T10:01:20;26.00;99.90
18541;DHT22;9400;50.924;5.328;2022-08-02T10:03:55;26.00;99.90
18541;DHT22;9400;50.924;5.328;2022-08-02T10:06:23;26.10;99.90
18541;DHT22;9400;50.924;5.328;2022-08-02T10:08:52;26.00;99.90
18541;DHT22;9400;50.924;5.328;2022-08-02T10:11:22;25.90;99.90
18541;DHT22;9400;50.924;5.328;2022-08-02T10:13:50;26.00;99.90
18541;DHT22;9400;50.924;5.328;2022-08-02T10:16:20;26.20;99.90
18541;DHT22;9400;50.924;5.328;2022-08-02T10:18:49;26.50;99.90
18541;DHT22;9400;50.924;5.328;2022-08-02T10:21:23;26.80;99.90
18541;DHT22;9400;50.924;5.328;2022-08-02T10:24:04;27.00;99.90
18541;DHT22;9400;50.924;5.328;2022-08-02T10:26:34;27.00;99.90
18541;DHT22;9400;50.924;5.328;2022-08-02T10:29:02;27.10;99.90
18541;DHT22;9400;50.924;5.328;2022-08-02T10:31:39;27.20;99.90
18541;DHT22;9400;50.924;5.328;2022-08-02T10:34:10;27.30;99.90
18541;DHT22;9400;50.924;5.328;2022-08-02T10:36:39;27.40;99.90
18541;DHT22;9400;50.924;5.328;2022-08-02T10:39:08;27.50;99.90
18541;DHT22;9400;50.924;5.328;2022-08-02T10:41:42;27.40;99.90
18541;DHT22;9400;50.924;5.328;2022-08-02T10:44:21;27.20;99.90
18541;DHT22;9400;50.924;5.328;2022-08-02T10:46:49;27.20;99.90
18541;DHT22;9400;50.924;5.328;2022-08-02T10:49:18;27.30;99.90
18541;DHT22;9400;50.924;5.328;2022-08-02T10:52:05;27.60;99.90
18541;DHT22;9400;50.924;5.328;2022-08-02T10:54:36;27.70;99.90
18541;DHT22;9400;50.924;5.328;2022-08-02T10:57:18;27.90;99.90
18541;DHT22;9400;50.924;5.328;2022-08-02T10:59:47;28.00;99.90
18541;DHT22;9400;50.924;5.328;2022-08-02T11:02:37;28.00;99.90
18541;DHT22;9400;50.924;5.328;2022-08-02T11:05:11;28.00;99.90
18541;DHT22;9400;50.924;5.328;2022-08-02T11:07:41;27.90;99.90
18541;DHT22;9400;50.924;5.328;2022-08-02T11:10:36;28.20;99.90
18541;DHT22;9400;50.924;5.328;2022-08-02T11:13:08;28.30;99.90
18541;DHT22;9400;50.924;5.328;2022-08-02T11:15:51;28.30;99.90
18541;DHT22;9400;50.924;5.328;2022-08-02T11:18:21;28.40;99.90
18541;DHT22;9400;50.924;5.328;2022-08-02T11:23:50;28.50;99.90
18541;DHT22;9400;50.924;5.328;2022-08-02T11:26:43;28.70;99.90
18541;DHT22;9400;50.924;5.328;2022-08-02T11:29:13;28.60;99.90
18541;DHT22;9400;50.924;5.328;2022-08-02T11:31:42;28.70;99.90
18541;DHT22;9400;50.924;5.328;2022-08-02T11:34:10;28.60;99.90
18541;DHT22;9400;50.924;5.328;2022-08-02T11:36:49;28.60;99.90
18541;DHT22;9400;50.924;5.328;2022-08-02T11:39:18;28.70;99.90
18541;DHT22;9400;50.924;5.328;2022-08-02T11:41:50;29.30;99.90
18541;DHT22;9400;50.924;5.328;2022-08-02T11:44:19;29.40;99.90
18541;DHT22;9400;50.924;5.328;2022-08-02T11:46:58;29.20;99.90
18541;DHT22;9400;50.924;5.328;2022-08-02T11:49:25;29.70;99.90
18541;DHT22;9400;50.924;5.328;2022-08-02T11:51:59;29.80;99.90
18541;DHT22;9400;50.924;5.328;2022-08-02T11:54:31;30.00;99.90
18541;DHT22;9400;50.924;5.328;2022-08-02T11:57:13;29.90;99.90
18541;DHT22;9400;50.924;5.328;2022-08-02T11:59:43;29.50;99.90
18541;DHT22;9400;50.924;5.328;2022-08-02T12:02:12;29.50;99.90
18541;DHT22;9400;50.924;5.328;2022-08-02T12:04:40;29.20;99.90
18541;DHT22;9400;50.924;5.328;2022-08-02T12:07:07;29.40;99.90
18541;DHT22;9400;50.924;5.328;2022-08-02T12:09:35;29.40;99.90
18541;DHT22;9400;50.924;5.328;2022-08-02T12:12:04;29.60;99.90
18541;DHT22;9400;50.924;5.328;2022-08-02T12:14:31;29.80;99.90
18541;DHT22;9400;50.924;5.328;2022-08-02T12:17:09;29.80;99.90
18541;DHT22;9400;50.924;5.328;2022-08-02T12:19:54;29.60;99.90
18541;DHT22;9400;50.924;5.328;2022-08-02T12:22:25;29.80;99.90
18541;DHT22;9400;50.924;5.328;2022-08-02T12:24:54;30.40;99.90
18541;DHT22;9400;50.924;5.328;2022-08-02T12:27:33;30.50;99.90
18541;DHT22;9400;50.924;5.328;2022-08-02T12:30:05;30.50;99.90
18541;DHT22;9400;50.924;5.328;2022-08-02T12:32:34;30.70;99.90
18541;DHT22;9400;50.924;5.328;2022-08-02T12:35:07;31.10;99.90
18541;DHT22;9400;50.924;5.328;2022-08-02T12:37:36;31.70;99.90
18541;DHT22;9400;50.924;5.328;2022-08-02T12:40:23;31.70;99.90
18541;DHT22;9400;50.924;5.328;2022-08-02T12:42:54;31.60;99.90
18541;DHT22;9400;50.924;5.328;2022-08-02T12:45:22;31.60;99.90
18541;DHT22;9400;50.924;5.328;2022-08-02T12:47:53;31.60;99.90
18541;DHT22;9400;50.924;5.328;2022-08-02T12:50:24;31.40;99.90
18541;DHT22;9400;50.924;5.328;2022-08-02T12:53:03;31.60;99.90
18541;DHT22;9400;50.924;5.328;2022-08-02T12:55:31;31.40;99.90
18541;DHT22;9400;50.924;5.328;2022-08-02T12:58:02;31.80;99.90
18541;DHT22;9400;50.924;5.328;2022-08-02T13:00:32;32.00;99.90
18541;DHT22;9400;50.924;5.328;2022-08-02T13:03:01;32.40;99.90
18541;DHT22;9400;50.924;5.328;2022-08-02T13:05:30;32.80;99.90
18541;DHT22;9400;50.924;5.328;2022-08-02T13:07:58;32.70;99.90
18541;DHT22;9400;50.924;5.328;2022-08-02T13:10:26;32.90;99.90
18541;DHT22;9400;50.924;5.328;2022-08-02T13:12:53;32.70;99.90
18541;DHT22;9400;50.924;5.328;2022-08-02T13:15:21;33.10;99.90
18541;DHT22;9400;50.924;5.328;2022-08-02T13:17:50;33.40;99.90
18541;DHT22;9400;50.924;5.328;2022-08-02T13:20:20;32.80;99.90
18541;DHT22;9400;50.924;5.328;2022-08-02T13:22:47;32.70;99.90
18541;DHT22;9400;50.924;5.328;2022-08-02T13:25:15;32.70;99.90
18541;DHT22;9400;50.924;5.328;2022-08-02T13:27:42;32.60;99.90
18541;DHT22;9400;50.924;5.328;2022-08-02T13:30:10;32.80;99.90
18541;DHT22;9400;50.924;5.328;2022-08-02T13:32:37;33.10;99.90
18541;DHT22;9400;50.924;5.328;2022-08-02T13:35:05;33.60;99.90
18541;DHT22;9400;50.924;5.328;2022-08-02T13:37:34;33.60;99.90
18541;DHT22;9400;50.924;5.328;2022-08-02T13:40:03;33.60;99.90
18541;DHT22;9400;50.924;5.328;2022-08-02T13:42:31;33.90;99.90
18541;DHT22;9400;50.924;5.328;2022-08-02T13:44:58;33.80;99.90
18541;DHT22;9400;50.924;5.328;2022-08-02T13:47:26;33.20;99.90
18541;DHT22;9400;50.924;5.328;2022-08-02T13:49:53;32.80;99.90
18541;DHT22;9400;50.924;5.328;2022-08-02T13:52:21;32.80;99.90
18541;DHT22;9400;50.924;5.328;2022-08-02T13:54:50;32.90;99.90
18541;DHT22;9400;50.924;5.328;2022-08-02T13:57:17;33.30;99.90
18541;DHT22;9400;50.924;5.328;2022-08-02T13:59:45;33.70;99.90
18541;DHT22;9400;50.924;5.328;2022-08-02T14:02:13;34.30;99.90
18541;DHT22;9400;50.924;5.328;2022-08-02T14:04:40;34.40;99.90
18541;DHT22;9400;50.924;5.328;2022-08-02T14:07:07;34.60;99.90
18541;DHT22;9400;50.924;5.328;2022-08-02T14:09:35;34.80;99.90
18541;DHT22;9400;50.924;5.328;2022-08-02T14:12:04;34.60;99.90
18541;DHT22;9400;50.924;5.328;2022-08-02T14:14:32;34.80;99.90
18541;DHT22;9400;50.924;5.328;2022-08-02T14:17:00;35.00;99.90
18541;DHT22;9400;50.924;5.328;2022-08-02T14:19:27;35.50;99.90
18541;DHT22;9400;50.924;5.328;2022-08-02T14:21:55;35.40;99.90
18541;DHT22;9400;50.924;5.328;2022-08-02T14:24:22;35.50;99.90
18541;DHT22;9400;50.924;5.328;2022-08-02T14:26:50;35.90;99.90
18541;DHT22;9400;50.924;5.328;2022-08-02T14:29:19;36.70;99.90
18541;DHT22;9400;50.924;5.328;2022-08-02T14:31:46;37.40;99.90
18541;DHT22;9400;50.924;5.328;2022-08-02T14:34:13;37.30;99.90
18541;DHT22;9400;50.924;5.328;2022-08-02T14:36:41;36.70;99.90
18541;DHT22;9400;50.924;5.328;2022-08-02T14:39:09;36.60;99.90
18541;DHT22;9400;50.924;5.328;2022-08-02T14:41:37;36.50;99.90
18541;DHT22;9400;50.924;5.328;2022-08-02T14:44:05;36.60;99.90
18541;DHT22;9400;50.924;5.328;2022-08-02T14:46:36;36.60;99.90
18541;DHT22;9400;50.924;5.328;2022-08-02T14:49:05;36.50;99.90
18541;DHT22;9400;50.924;5.328;2022-08-02T14:51:34;37.00;99.90
18541;DHT22;9400;50.924;5.328;2022-08-02T14:54:03;36.60;99.90
18541;DHT22;9400;50.924;5.328;2022-08-02T14:56:31;36.50;99.90
18541;DHT22;9400;50.924;5.328;2022-08-02T14:58:58;36.70;99.90
18541;DHT22;9400;50.924;5.328;2022-08-02T15:01:26;36.90;99.90
18541;DHT22;9400;50.924;5.328;2022-08-02T15:03:55;36.60;99.90
18541;DHT22;9400;50.924;5.328;2022-08-02T15:06:23;36.50;99.90
18541;DHT22;9400;50.924;5.328;2022-08-02T15:08:57;36.30;99.90
18541;DHT22;9400;50.924;5.328;2022-08-02T15:11:25;36.10;99.90
18541;DHT22;9400;50.924;5.328;2022-08-02T15:13:53;36.20;99.90
18541;DHT22;9400;50.924;5.328;2022-08-02T15:16:23;35.80;99.90
18541;DHT22;9400;50.924;5.328;2022-08-02T15:18:51;35.40;99.90
18541;DHT22;9400;50.924;5.328;2022-08-02T15:21:20;35.80;99.90
18541;DHT22;9400;50.924;5.328;2022-08-02T15:23:48;36.50;99.90
18541;DHT22;9400;50.924;5.328;2022-08-02T15:26:15;36.70;99.90
18541;DHT22;9400;50.924;5.328;2022-08-02T15:28:46;36.60;99.90
18541;DHT22;9400;50.924;5.328;2022-08-02T15:31:14;35.80;99.90
18541;DHT22;9400;50.924;5.328;2022-08-02T15:33:42;36.20;99.90
18541;DHT22;9400;50.924;5.328;2022-08-02T15:36:10;36.60;99.90
18541;DHT22;9400;50.924;5.328;2022-08-02T15:38:39;37.40;99.90
18541;DHT22;9400;50.924;5.328;2022-08-02T15:41:07;37.80;99.90
18541;DHT22;9400;50.924;5.328;2022-08-02T15:43:35;37.60;99.90
18541;DHT22;9400;50.924;5.328;2022-08-02T15:46:03;37.70;99.90
18541;DHT22;9400;50.924;5.328;2022-08-02T15:48:31;38.20;99.90
18541;DHT22;9400;50.924;5.328;2022-08-02T15:50:58;38.40;99.90
18541;DHT22;9400;50.924;5.328;2022-08-02T15:53:26;38.30;99.90
18541;DHT22;9400;50.924;5.328;2022-08-02T15:55:55;38.20;99.90
18541;DHT22;9400;50.924;5.328;2022-08-02T15:58:23;38.40;99.90
18541;DHT22;9400;50.924;5.328;2022-08-02T16:00:51;38.40;99.90
18541;DHT22;9400;50.924;5.328;2022-08-02T16:03:19;38.60;99.90
18541;DHT22;9400;50.924;5.328;2022-08-02T16:05:47;38.30;99.90